createdAt,value
2018-10-21T00:01:04.093Z,1030.86
2018-10-21T00:02:04.396Z,1030.89
2018-10-21T00:03:04.719Z,1030.87
2018-10-21T00:04:04.295Z,1030.93
2018-10-21T00:05:25.875Z,1030.91
2018-10-21T00:07:08.637Z,1030.94
2018-10-21T00:08:30.377Z,1030.96
2018-10-21T00:09:30.658Z,1030.93
2018-10-21T00:10:31.047Z,1030.94
2018-10-21T00:11:30.693Z,1030.93
2018-10-21T00:12:31.173Z,1030.92
2018-10-21T00:13:30.614Z,1030.91
2018-10-21T00:14:52.368Z,1030.97
2018-10-21T00:15:52.789Z,1030.98
2018-10-21T00:16:53.178Z,1030.97
2018-10-21T00:17:52.457Z,1030.96
2018-10-21T00:18:52.982Z,1030.99
2018-10-21T00:19:52.376Z,1030.95
2018-10-21T00:21:34.636Z,1031.00
2018-10-21T00:22:35.394Z,1031.01
2018-10-21T00:23:34.965Z,1030.98
2018-10-21T00:24:35.396Z,1030.99
2018-10-21T00:25:34.850Z,1030.97
2018-10-21T00:26:35.327Z,1030.95
2018-10-21T00:27:35.628Z,1030.96
2018-10-21T00:28:34.953Z,1030.94
2018-10-21T00:29:56.579Z,1030.93
2018-10-21T00:30:57.055Z,1030.95
2018-10-21T00:31:56.770Z,1030.94
2018-10-21T00:32:57.285Z,1030.90
2018-10-21T00:33:56.645Z,1030.88
2018-10-21T00:34:56.976Z,1030.84
2018-10-21T00:35:57.291Z,1030.83
2018-10-21T00:36:56.792Z,1030.84
2018-10-21T00:38:18.496Z,1030.85
2018-10-21T00:39:39.908Z,1030.82
2018-10-21T00:41:24.127Z,1030.79
2018-10-21T00:42:24.502Z,1030.79
2018-10-21T00:43:25.115Z,1030.77
2018-10-21T00:44:24.513Z,1030.76
2018-10-21T00:46:07.159Z,1030.80
2018-10-21T00:47:07.457Z,1030.79
2018-10-21T00:48:07.601Z,1030.79
2018-10-21T00:49:08.086Z,1030.80
2018-10-21T00:50:07.702Z,1030.75
2018-10-21T00:51:08.254Z,1030.76
2018-10-21T00:52:07.754Z,1030.69
2018-10-21T00:53:07.301Z,1030.67
2018-10-21T00:54:29.822Z,1030.65
2018-10-21T00:55:29.262Z,1030.62
2018-10-21T00:56:29.796Z,1030.61
2018-10-21T00:57:50.473Z,1030.57
2018-10-21T00:59:12.457Z,1030.60
2018-10-21T01:00:12.896Z,1030.60
2018-10-21T01:01:49.595Z,1030.61
2018-10-21T01:02:38.588Z,1030.59
2018-10-21T01:03:37.827Z,1030.61
2018-10-21T01:04:58.407Z,1030.61
2018-10-21T01:05:58.602Z,1030.65
2018-10-21T01:07:20.613Z,1030.67
2018-10-21T01:08:21.009Z,1030.71
2018-10-21T01:09:21.326Z,1030.69
2018-10-21T01:10:20.680Z,1030.70
2018-10-21T01:11:21.047Z,1030.73
2018-10-21T01:12:20.677Z,1030.74
2018-10-21T01:13:20.996Z,1030.74
2018-10-21T01:14:42.519Z,1030.78
2018-10-21T01:15:42.944Z,1030.73
2018-10-21T01:17:03.453Z,1030.69
2018-10-21T01:18:04.106Z,1030.71
2018-10-21T01:19:24.596Z,1030.67
2018-10-21T01:20:25.171Z,1030.67
2018-10-21T01:21:25.648Z,1030.64
2018-10-21T01:22:24.992Z,1030.66
2018-10-21T01:23:25.409Z,1030.69
2018-10-21T01:24:24.745Z,1030.67
2018-10-21T01:25:25.207Z,1030.68
2018-10-21T01:26:24.646Z,1030.68
2018-10-21T01:27:24.789Z,1030.67
2018-10-21T01:28:25.308Z,1030.65
2018-10-21T01:29:24.893Z,1030.67
2018-10-21T01:30:25.354Z,1030.63
2018-10-21T01:31:24.629Z,1030.61
2018-10-21T01:32:25.036Z,1030.61
2018-10-21T01:33:25.516Z,1030.58
2018-10-21T01:34:25.096Z,1030.56
2018-10-21T01:35:25.443Z,1030.58
2018-10-21T01:36:25.120Z,1030.61
2018-10-21T01:37:24.932Z,1030.59
2018-10-21T01:38:25.676Z,1030.62
2018-10-21T01:39:25.098Z,1030.63
2018-10-21T01:40:25.474Z,1030.63
2018-10-21T01:41:25.029Z,1030.65
2018-10-21T01:42:46.733Z,1030.71
2018-10-21T01:43:47.062Z,1030.67
2018-10-21T01:44:47.382Z,1030.72
2018-10-21T01:45:46.967Z,1030.75
2018-10-21T01:46:47.311Z,1030.78
2018-10-21T01:48:09.027Z,1030.73
2018-10-21T01:49:09.482Z,1030.77
2018-10-21T01:50:09.104Z,1030.76
2018-10-21T01:51:30.681Z,1030.73
2018-10-21T01:52:52.354Z,1030.78
2018-10-21T01:53:52.877Z,1030.79
2018-10-21T01:54:53.327Z,1030.76
2018-10-21T01:55:52.967Z,1030.72
2018-10-21T01:56:52.519Z,1030.73
2018-10-21T01:58:14.304Z,1030.76
2018-10-21T01:59:57.250Z,1030.74
2018-10-21T02:00:57.773Z,1030.75
2018-10-21T02:01:57.131Z,1030.74
2018-10-21T02:02:57.557Z,1030.73
2018-10-21T02:03:58.082Z,1030.71
2018-10-21T02:05:29.884Z,1030.76
2018-10-21T02:06:30.557Z,1030.74
2018-10-21T02:07:30.128Z,1030.73
2018-10-21T02:08:30.549Z,1030.66
2018-10-21T02:10:35.483Z,1030.61
2018-10-21T02:11:35.008Z,1030.58
2018-10-21T02:12:35.574Z,1030.55
2018-10-21T02:13:35.178Z,1030.57
2018-10-21T02:14:35.551Z,1030.58
2018-10-21T02:15:35.118Z,1030.55
2018-10-21T02:16:35.673Z,1030.52
2018-10-21T02:17:35.000Z,1030.49
2018-10-21T02:18:35.410Z,1030.55
2018-10-21T02:19:34.946Z,1030.54
2018-10-21T02:20:35.338Z,1030.55
2018-10-21T02:21:34.769Z,1030.52
2018-10-21T02:22:47.036Z,1030.49
2018-10-21T02:24:08.508Z,1030.49
2018-10-21T02:25:51.383Z,1030.47
2018-10-21T02:26:51.671Z,1030.42
2018-10-21T02:27:52.049Z,1030.42
2018-10-21T02:28:51.561Z,1030.44
2018-10-21T02:29:51.918Z,1030.42
2018-10-21T02:30:52.281Z,1030.48
2018-10-21T02:31:51.449Z,1030.44
2018-10-21T02:32:52.024Z,1030.47
2018-10-21T02:33:51.638Z,1030.45
2018-10-21T02:34:52.011Z,1030.43
2018-10-21T02:36:13.407Z,1030.44
2018-10-21T02:37:13.551Z,1030.44
2018-10-21T02:38:14.065Z,1030.43
2018-10-21T02:39:13.503Z,1030.44
2018-10-21T02:40:56.325Z,1030.43
2018-10-21T02:41:57.452Z,1030.37
2018-10-21T02:42:56.630Z,1030.32
2018-10-21T02:44:18.083Z,1030.33
2018-10-21T02:45:18.543Z,1030.34
2018-10-21T02:46:18.837Z,1030.37
2018-10-21T02:47:39.345Z,1030.37
2018-10-21T02:49:00.519Z,1030.38
2018-10-21T02:50:00.865Z,1030.39
2018-10-21T02:51:01.161Z,1030.41
2018-10-21T02:52:00.711Z,1030.42
2018-10-21T02:53:01.325Z,1030.41
2018-10-21T02:54:00.827Z,1030.46
2018-10-21T02:55:22.449Z,1030.47
2018-10-21T02:56:22.940Z,1030.41
2018-10-21T02:57:22.439Z,1030.40
2018-10-21T02:58:22.906Z,1030.38
2018-10-21T02:59:43.651Z,1030.41
2018-10-21T03:01:26.204Z,1030.37
2018-10-21T03:02:26.834Z,1030.35
2018-10-21T03:03:48.258Z,1030.39
2018-10-21T03:04:48.680Z,1030.37
2018-10-21T03:05:48.952Z,1030.33
2018-10-21T03:06:48.655Z,1030.35
2018-10-21T03:07:49.008Z,1030.34
2018-10-21T03:08:48.190Z,1030.34
2018-10-21T03:09:48.506Z,1030.31
2018-10-21T03:10:49.192Z,1030.37
2018-10-21T03:11:48.723Z,1030.35
2018-10-21T03:12:49.043Z,1030.36
2018-10-21T03:13:48.488Z,1030.35
2018-10-21T03:14:48.946Z,1030.33
2018-10-21T03:15:48.349Z,1030.31
2018-10-21T03:16:48.745Z,1030.32
2018-10-21T03:17:48.340Z,1030.27
2018-10-21T03:18:48.515Z,1030.28
2018-10-21T03:19:48.794Z,1030.27
2018-10-21T03:20:48.886Z,1030.28
2018-10-21T03:21:48.289Z,1030.29
2018-10-21T03:22:18.265Z,1030.28
2018-10-21T03:23:18.666Z,1030.28
2018-10-21T03:24:19.220Z,1030.25
2018-10-21T03:25:18.842Z,1030.27
2018-10-21T03:26:18.371Z,1030.22
2018-10-21T03:27:18.980Z,1030.24
2018-10-21T03:28:18.554Z,1030.22
2018-10-21T03:29:40.231Z,1030.20
2018-10-21T03:30:40.663Z,1030.16
2018-10-21T03:31:41.004Z,1030.20
2018-10-21T03:32:40.566Z,1030.17
2018-10-21T03:33:41.202Z,1030.21
2018-10-21T03:34:40.999Z,1030.17
2018-10-21T03:36:01.714Z,1030.21
2018-10-21T03:37:02.232Z,1030.20
2018-10-21T03:38:01.816Z,1030.18
2018-10-21T03:39:02.420Z,1030.21
2018-10-21T03:40:01.820Z,1030.16
2018-10-21T03:41:23.210Z,1030.17
2018-10-21T03:42:23.914Z,1030.18
2018-10-21T03:43:23.346Z,1030.19
2018-10-21T03:44:44.907Z,1030.10
2018-10-21T03:46:06.236Z,1030.10
2018-10-21T03:47:06.574Z,1030.11
2018-10-21T03:48:06.834Z,1030.12
2018-10-21T03:49:06.268Z,1030.14
2018-10-21T03:50:06.749Z,1030.14
2018-10-21T03:51:07.181Z,1030.09
2018-10-21T03:52:06.605Z,1030.09
2018-10-21T03:53:51.162Z,1030.08
2018-10-21T03:54:51.418Z,1030.12
2018-10-21T03:55:51.668Z,1030.10
2018-10-21T03:56:52.131Z,1030.09
2018-10-21T03:57:51.315Z,1030.13
2018-10-21T03:58:51.745Z,1030.12
2018-10-21T04:00:13.100Z,1030.13
2018-10-21T04:01:34.514Z,1030.18
2018-10-21T04:02:34.734Z,1030.13
2018-10-21T04:03:56.161Z,1030.11
2018-10-21T04:04:56.391Z,1030.08
2018-10-21T04:05:56.882Z,1030.09
2018-10-21T04:06:56.108Z,1030.13
2018-10-21T04:07:56.189Z,1030.10
2018-10-21T04:08:56.219Z,1030.12
2018-10-21T04:09:56.564Z,1030.13
2018-10-21T04:10:56.871Z,1030.14
2018-10-21T04:12:17.187Z,1030.12
2018-10-21T04:13:17.541Z,1030.16
2018-10-21T04:14:17.706Z,1030.18
2018-10-21T04:15:18.011Z,1030.14
2018-10-21T04:16:17.510Z,1030.11
2018-10-21T04:17:17.254Z,1030.13
2018-10-21T04:18:18.066Z,1030.09
2018-10-21T04:19:17.497Z,1030.12
2018-10-21T04:20:17.730Z,1030.12
2018-10-21T04:21:17.255Z,1030.10
2018-10-21T04:22:17.648Z,1030.04
2018-10-21T04:23:17.299Z,1030.03
2018-10-21T04:24:17.867Z,1030.05
2018-10-21T04:25:38.351Z,1030.03
2018-10-21T04:26:38.794Z,1030.01
2018-10-21T04:28:21.196Z,1030.00
2018-10-21T04:29:21.583Z,1030.02
2018-10-21T04:30:42.909Z,1030.03
2018-10-21T04:31:43.381Z,1030.04
2018-10-21T04:32:43.514Z,1030.00
2018-10-21T04:34:04.275Z,1030.00
2018-10-21T04:35:25.476Z,1029.97
2018-10-21T04:36:25.875Z,1029.99
2018-10-21T04:37:26.485Z,1030.02
2018-10-21T04:38:46.951Z,1030.04
2018-10-21T04:39:47.436Z,1030.03
2018-10-21T04:40:47.508Z,1030.01
2018-10-21T04:41:47.783Z,1029.98
2018-10-21T04:42:47.186Z,1029.97
2018-10-21T04:43:47.346Z,1029.95
2018-10-21T04:44:47.600Z,1029.96
2018-10-21T04:45:47.049Z,1029.97
2018-10-21T04:46:47.293Z,1029.97
2018-10-21T04:47:47.027Z,1029.96
2018-10-21T04:48:47.485Z,1029.93
2018-10-21T04:49:47.027Z,1029.90
2018-10-21T04:50:47.307Z,1029.89
2018-10-21T04:51:47.837Z,1029.88
2018-10-21T04:52:47.106Z,1029.88
2018-10-21T04:53:47.449Z,1029.87
2018-10-21T04:54:46.819Z,1029.84
2018-10-21T04:55:47.141Z,1029.85
2018-10-21T04:56:47.548Z,1029.83
2018-10-21T04:57:47.127Z,1029.83
2018-10-21T04:58:47.560Z,1029.80
2018-10-21T04:59:46.657Z,1029.82
2018-10-21T05:00:47.268Z,1029.86
2018-10-21T05:01:47.734Z,1029.84
2018-10-21T05:02:47.088Z,1029.85
2018-10-21T05:03:47.467Z,1029.87
2018-10-21T05:04:46.905Z,1029.82
2018-10-21T05:05:47.477Z,1029.83
2018-10-21T05:06:46.645Z,1029.85
2018-10-21T05:07:47.143Z,1029.83
2018-10-21T05:08:47.400Z,1029.85
2018-10-21T05:09:47.561Z,1029.87
2018-10-21T05:10:46.951Z,1029.86
2018-10-21T05:11:47.404Z,1029.88
2018-10-21T05:12:47.755Z,1029.86
2018-10-21T05:13:46.786Z,1029.85
2018-10-21T05:14:47.097Z,1029.90
2018-10-21T05:15:47.384Z,1029.89
2018-10-21T05:16:47.845Z,1029.85
2018-10-21T05:17:47.214Z,1029.87
2018-10-21T05:18:47.558Z,1029.82
2018-10-21T05:19:46.941Z,1029.87
2018-10-21T05:20:47.263Z,1029.87
2018-10-21T05:21:47.684Z,1029.85
2018-10-21T05:22:46.728Z,1029.87
2018-10-21T05:23:47.321Z,1029.88
2018-10-21T05:24:47.781Z,1029.84
2018-10-21T05:25:47.169Z,1029.88
2018-10-21T05:26:47.421Z,1029.85
2018-10-21T05:27:46.633Z,1029.84
2018-10-21T05:28:46.976Z,1029.84
2018-10-21T05:29:47.346Z,1029.84
2018-10-21T05:30:46.901Z,1029.83
2018-10-21T05:31:47.217Z,1029.86
2018-10-21T05:32:47.750Z,1029.81
2018-10-21T05:34:08.398Z,1029.82
2018-10-21T05:35:08.712Z,1029.84
2018-10-21T05:36:09.062Z,1029.85
2018-10-21T05:37:08.411Z,1029.86
2018-10-21T05:38:08.821Z,1029.88
2018-10-21T05:39:31.030Z,1029.86
2018-10-21T05:40:31.359Z,1029.85
2018-10-21T05:41:52.968Z,1029.88
2018-10-21T05:42:53.465Z,1029.85
2018-10-21T05:44:14.688Z,1029.89
2018-10-21T05:45:14.992Z,1029.86
2018-10-21T05:46:15.433Z,1029.88
2018-10-21T05:47:15.173Z,1029.93
2018-10-21T05:48:15.832Z,1029.88
2018-10-21T05:49:15.268Z,1029.96
2018-10-21T05:50:36.971Z,1029.90
2018-10-21T05:51:37.622Z,1029.95
2018-10-21T05:52:37.081Z,1029.94
2018-10-21T05:53:37.389Z,1029.96
2018-10-21T05:54:59.106Z,1030.00
2018-10-21T05:55:59.432Z,1030.04
2018-10-21T05:56:59.820Z,1030.01
2018-10-21T05:57:59.181Z,1029.99
2018-10-21T05:59:20.774Z,1030.04
2018-10-21T06:00:21.205Z,1030.03
2018-10-21T06:01:21.700Z,1030.06
2018-10-21T06:02:21.181Z,1030.07
2018-10-21T06:03:21.620Z,1030.12
2018-10-21T06:04:21.030Z,1030.12
2018-10-21T06:05:21.293Z,1030.13
2018-10-21T06:06:21.651Z,1030.14
2018-10-21T06:07:21.188Z,1030.13
2018-10-21T06:08:21.532Z,1030.15
2018-10-21T06:09:42.329Z,1030.18
2018-10-21T06:11:03.806Z,1030.22
2018-10-21T06:12:04.349Z,1030.19
2018-10-21T06:13:25.075Z,1030.21
2018-10-21T06:14:25.342Z,1030.15
2018-10-21T06:15:25.777Z,1030.16
2018-10-21T06:16:25.483Z,1030.14
2018-10-21T06:17:26.073Z,1030.21
2018-10-21T06:18:25.657Z,1030.23
2018-10-21T06:19:25.291Z,1030.22
2018-10-21T06:20:25.942Z,1030.24
2018-10-21T06:21:25.527Z,1030.26
2018-10-21T06:22:26.141Z,1030.24
2018-10-21T06:23:46.843Z,1030.26
2018-10-21T06:24:47.364Z,1030.19
2018-10-21T06:25:46.851Z,1030.17
2018-10-21T06:26:47.483Z,1030.18
2018-10-21T06:27:47.010Z,1030.20
2018-10-21T06:28:47.591Z,1030.19
2018-10-21T06:29:46.940Z,1030.14
2018-10-21T06:31:08.964Z,1030.14
2018-10-21T06:32:09.565Z,1030.20
2018-10-21T06:33:30.490Z,1030.14
2018-10-21T06:34:31.047Z,1030.14
2018-10-21T06:35:30.752Z,1030.16
2018-10-21T06:36:30.945Z,1030.17
2018-10-21T06:37:30.638Z,1030.19
2018-10-21T06:38:31.305Z,1030.17
2018-10-21T06:39:30.925Z,1030.17
2018-10-21T06:40:30.432Z,1030.17
2018-10-21T06:41:31.135Z,1030.20
2018-10-21T06:42:30.658Z,1030.15
2018-10-21T06:43:30.211Z,1030.18
2018-10-21T06:44:52.401Z,1030.19
2018-10-21T06:45:53.112Z,1030.17
2018-10-21T06:46:52.620Z,1030.17
2018-10-21T06:47:53.112Z,1030.16
2018-10-21T06:49:14.093Z,1030.17
2018-10-21T06:50:14.760Z,1030.19
2018-10-21T06:51:14.613Z,1030.21
2018-10-21T06:52:14.336Z,1030.22
2018-10-21T06:53:14.865Z,1030.18
2018-10-21T06:54:14.490Z,1030.20
2018-10-21T06:55:14.977Z,1030.22
2018-10-21T06:56:14.562Z,1030.22
2018-10-21T06:57:14.480Z,1030.22
2018-10-21T06:58:14.252Z,1030.18
2018-10-21T06:59:15.029Z,1030.21
2018-10-21T07:00:36.021Z,1030.22
2018-10-21T07:01:36.402Z,1030.18
2018-10-21T07:02:36.875Z,1030.23
2018-10-21T07:03:36.366Z,1030.23
2018-10-21T07:04:36.198Z,1030.21
2018-10-21T07:05:35.813Z,1030.22
2018-10-21T07:06:36.433Z,1030.22
2018-10-21T07:08:42.488Z,1030.21
2018-10-21T07:09:43.130Z,1030.03
2018-10-21T07:10:44.918Z,1030.19
2018-10-21T07:11:42.661Z,1030.20
2018-10-21T07:12:43.323Z,1030.20
2018-10-21T07:13:42.926Z,1030.21
2018-10-21T07:14:42.741Z,1030.22
2018-10-21T07:15:43.564Z,1030.21
2018-10-21T07:16:43.344Z,1030.23
2018-10-21T07:17:43.272Z,1030.23
2018-10-21T07:18:42.894Z,1030.23
2018-10-21T07:19:42.474Z,1030.25
2018-10-21T07:20:43.244Z,1030.25
2018-10-21T07:21:42.673Z,1030.26
2018-10-21T07:22:43.452Z,1030.25
2018-10-21T07:23:43.247Z,1030.23
2018-10-21T07:24:42.918Z,1030.26
2018-10-21T07:25:43.287Z,1030.26
2018-10-21T07:26:42.865Z,1030.25
2018-10-21T07:27:42.641Z,1030.25
2018-10-21T07:28:42.456Z,1030.24
2018-10-21T07:30:04.538Z,1030.26
2018-10-21T07:31:27.193Z,1030.26
2018-10-21T07:32:26.946Z,1030.28
2018-10-21T07:33:27.486Z,1030.27
2018-10-21T07:34:27.052Z,1030.24
2018-10-21T07:35:49.318Z,1030.30
2018-10-21T07:36:50.174Z,1030.28
2018-10-21T07:37:49.815Z,1030.34
2018-10-21T07:38:49.328Z,1030.33
2018-10-21T07:39:49.980Z,1030.34
2018-10-21T07:40:49.617Z,1030.34
2018-10-21T07:42:10.889Z,1030.34
2018-10-21T07:43:11.608Z,1030.34
2018-10-21T07:44:11.400Z,1030.33
2018-10-21T07:45:59.403Z,1030.31
2018-10-21T07:47:00.175Z,1030.32
2018-10-21T07:47:59.685Z,1030.37
2018-10-21T07:48:59.420Z,1030.32
2018-10-21T07:50:00.187Z,1030.39
2018-10-21T07:50:59.955Z,1030.44
2018-10-21T07:51:59.869Z,1030.45
2018-10-21T07:52:59.631Z,1030.47
2018-10-21T07:53:59.448Z,1030.49
2018-10-21T07:55:00.061Z,1030.54
2018-10-21T07:56:21.332Z,1030.56
2018-10-21T07:57:21.994Z,1030.55
2018-10-21T07:58:21.734Z,1030.59
2018-10-21T07:59:21.499Z,1030.59
2018-10-21T08:00:22.200Z,1030.59
2018-10-21T08:01:22.061Z,1030.60
2018-10-21T08:02:21.972Z,1030.58
2018-10-21T08:03:21.730Z,1030.57
2018-10-21T08:04:21.451Z,1030.61
2018-10-21T08:05:43.595Z,1030.60
2018-10-21T08:07:05.310Z,1030.58
2018-10-21T08:08:05.811Z,1030.59
2018-10-21T08:09:05.679Z,1030.63
2018-10-21T08:10:05.321Z,1030.63
2018-10-21T08:11:05.718Z,1030.64
2018-10-21T08:12:05.347Z,1030.64
2018-10-21T08:13:06.305Z,1030.63
2018-10-21T08:14:05.948Z,1030.61
2018-10-21T08:15:05.788Z,1030.62
2018-10-21T08:16:05.282Z,1030.62
2018-10-21T08:17:06.056Z,1030.63
2018-10-21T08:18:27.216Z,1030.58
2018-10-21T08:19:28.058Z,1030.60
2018-10-21T08:20:27.944Z,1030.59
2018-10-21T08:21:27.532Z,1030.62
2018-10-21T08:22:27.252Z,1030.63
2018-10-21T08:23:27.812Z,1030.67
2018-10-21T08:24:27.787Z,1030.66
2018-10-21T08:25:27.444Z,1030.71
2018-10-21T08:26:28.191Z,1030.68
2018-10-21T08:27:27.772Z,1030.68
2018-10-21T08:28:49.239Z,1030.66
2018-10-21T08:29:48.820Z,1030.72
2018-10-21T08:30:49.593Z,1030.71
2018-10-21T08:31:50.252Z,1030.72
2018-10-21T08:32:48.973Z,1030.73
2018-10-21T08:33:50.001Z,1030.72
2018-10-21T08:34:49.829Z,1030.73
2018-10-21T08:35:49.570Z,1030.73
2018-10-21T08:36:49.495Z,1030.77
2018-10-21T08:37:49.707Z,1030.75
2018-10-21T08:38:49.331Z,1030.76
2018-10-21T08:39:49.040Z,1030.73
2018-10-21T08:40:50.511Z,1030.69
2018-10-21T08:41:49.178Z,1030.73
2018-10-21T08:42:49.705Z,1030.73
2018-10-21T08:43:49.203Z,1030.72
2018-10-21T08:44:49.737Z,1030.71
2018-10-21T08:45:50.543Z,1030.73
2018-10-21T08:46:49.804Z,1030.72
2018-10-21T08:47:50.629Z,1030.72
2018-10-21T08:48:49.427Z,1030.78
2018-10-21T08:50:13.011Z,1030.77
2018-10-21T08:51:14.156Z,1030.78
2018-10-21T08:52:13.743Z,1030.80
2018-10-21T08:53:37.049Z,1030.74
2018-10-21T08:54:35.760Z,1030.79
2018-10-21T08:55:35.676Z,1030.80
2018-10-21T08:56:35.356Z,1030.80
2018-10-21T08:57:35.221Z,1030.77
2018-10-21T08:58:35.141Z,1030.78
2018-10-21T08:59:35.753Z,1030.81
2018-10-21T09:00:35.644Z,1030.75
2018-10-21T09:01:35.813Z,1030.76
2018-10-21T09:02:35.709Z,1030.73
2018-10-21T09:03:35.532Z,1030.75
2018-10-21T09:04:35.378Z,1030.73
2018-10-21T09:05:35.008Z,1030.73
2018-10-21T09:06:35.937Z,1030.77
2018-10-21T09:07:57.627Z,1030.72
2018-10-21T09:08:58.197Z,1030.54
2018-10-21T09:09:58.239Z,1030.71
2018-10-21T09:10:58.114Z,1030.70
2018-10-21T09:11:58.089Z,1030.68
2018-10-21T09:12:57.868Z,1030.69
2018-10-21T09:13:57.651Z,1030.66
2018-10-21T09:14:58.496Z,1030.70
2018-10-21T09:15:58.352Z,1030.73
2018-10-21T09:16:58.051Z,1030.73
2018-10-21T09:17:57.934Z,1030.71
2018-10-21T09:18:57.797Z,1030.71
2018-10-21T09:19:58.469Z,1030.75
2018-10-21T09:20:58.344Z,1030.71
2018-10-21T09:21:57.900Z,1030.75
2018-10-21T09:22:57.689Z,1030.74
2018-10-21T09:23:57.599Z,1030.77
2018-10-21T09:24:57.639Z,1030.76
2018-10-21T09:25:58.430Z,1030.76
2018-10-21T09:27:21.995Z,1030.75
2018-10-21T09:28:22.014Z,1030.74
2018-10-21T09:29:22.696Z,1030.71
2018-10-21T09:30:22.727Z,1030.73
2018-10-21T09:31:44.073Z,1030.72
2018-10-21T09:32:44.770Z,1030.69
2018-10-21T09:33:44.335Z,1030.69
2018-10-21T09:34:45.917Z,1030.66
2018-10-21T09:35:45.417Z,1030.65
2018-10-21T09:37:10.540Z,1030.63
2018-10-21T09:38:11.377Z,1030.62
2018-10-21T09:39:11.012Z,1030.58
2018-10-21T09:40:10.046Z,1030.61
2018-10-21T09:41:31.595Z,1030.58
2018-10-21T09:42:31.619Z,1030.58
2018-10-21T09:43:32.715Z,1030.57
2018-10-21T09:44:31.594Z,1030.55
2018-10-21T09:45:32.423Z,1030.59
2018-10-21T09:46:32.038Z,1030.55
2018-10-21T09:47:31.825Z,1030.53
2018-10-21T09:48:31.876Z,1030.53
2018-10-21T09:49:31.695Z,1030.52
2018-10-21T09:50:31.688Z,1030.52
2018-10-21T09:51:31.455Z,1030.53
2018-10-21T09:52:32.289Z,1030.50
2018-10-21T09:53:32.123Z,1030.52
2018-10-21T09:54:32.095Z,1030.49
2018-10-21T09:55:32.107Z,1030.51
2018-10-21T09:56:31.791Z,1030.50
2018-10-21T09:57:31.865Z,1030.49
2018-10-21T09:58:31.880Z,1030.47
2018-10-21T09:59:31.623Z,1030.49
2018-10-21T10:00:31.657Z,1030.49
2018-10-21T10:01:54.193Z,1030.46
2018-10-21T10:02:55.007Z,1030.46
2018-10-21T10:03:55.088Z,1030.38
2018-10-21T10:05:17.314Z,1030.41
2018-10-21T10:06:17.177Z,1030.36
2018-10-21T10:07:40.857Z,1030.34
2018-10-21T10:08:40.877Z,1030.35
2018-10-21T10:09:41.729Z,1030.31
2018-10-21T10:11:05.154Z,1030.34
2018-10-21T10:12:05.095Z,1030.32
2018-10-21T10:13:05.974Z,1030.28
2018-10-21T10:14:05.832Z,1030.33
2018-10-21T10:15:05.768Z,1030.28
2018-10-21T10:16:05.946Z,1030.26
2018-10-21T10:17:05.984Z,1030.26
2018-10-21T10:18:05.887Z,1030.27
2018-10-21T10:19:05.881Z,1030.21
2018-10-21T10:20:27.562Z,1030.21
2018-10-21T10:21:28.300Z,1030.21
2018-10-21T10:22:28.065Z,1030.22
2018-10-21T10:23:27.943Z,1030.19
2018-10-21T10:24:27.763Z,1030.17
2018-10-21T10:25:28.371Z,1030.21
2018-10-21T10:26:28.368Z,1030.19
2018-10-21T10:27:28.546Z,1030.14
2018-10-21T10:28:28.400Z,1030.15
2018-10-21T10:29:50.457Z,1030.16
2018-10-21T10:30:50.151Z,1030.13
2018-10-21T10:31:50.115Z,1030.16
2018-10-21T10:32:49.913Z,1030.10
2018-10-21T10:33:50.655Z,1030.11
2018-10-21T10:34:50.343Z,1030.09
2018-10-21T10:35:49.966Z,1030.04
2018-10-21T10:37:33.350Z,1030.00
2018-10-21T10:38:56.797Z,1030.02
2018-10-21T10:39:57.683Z,1030.00
2018-10-21T10:40:57.733Z,1029.97
2018-10-21T10:41:58.088Z,1029.95
2018-10-21T10:42:57.114Z,1029.92
2018-10-21T10:43:56.833Z,1029.88
2018-10-21T10:44:57.755Z,1029.89
2018-10-21T10:45:58.051Z,1029.90
2018-10-21T10:46:56.883Z,1029.87
2018-10-21T10:47:57.712Z,1029.89
2018-10-21T10:48:57.820Z,1029.90
2018-10-21T10:49:57.639Z,1029.90
2018-10-21T10:50:57.539Z,1029.87
2018-10-21T10:51:57.772Z,1029.90
2018-10-21T10:53:41.451Z,1029.85
2018-10-21T10:54:41.800Z,1029.80
2018-10-21T10:55:41.833Z,1029.81
2018-10-21T10:56:41.679Z,1029.81
2018-10-21T10:57:41.742Z,1029.79
2018-10-21T10:58:41.880Z,1029.78
2018-10-21T10:59:41.740Z,1029.75
2018-10-21T11:00:41.797Z,1029.71
2018-10-21T11:01:41.655Z,1029.73
2018-10-21T11:02:41.519Z,1029.69
2018-10-21T11:03:41.384Z,1029.67
2018-10-21T11:04:41.440Z,1029.65
2018-10-21T11:05:41.391Z,1029.65
2018-10-21T11:06:41.368Z,1029.62
2018-10-21T11:07:41.304Z,1029.63
2018-10-21T11:08:41.454Z,1029.62
2018-10-21T11:09:41.365Z,1029.61
2018-10-21T11:10:41.170Z,1029.63
2018-10-21T11:11:41.022Z,1029.62
2018-10-21T11:12:41.737Z,1029.59
2018-10-21T11:13:41.685Z,1029.57
2018-10-21T11:14:42.683Z,1029.58
2018-10-21T11:16:05.396Z,1029.59
2018-10-21T11:17:05.512Z,1029.56
2018-10-21T11:18:06.308Z,1029.53
2018-10-21T11:19:06.545Z,1029.54
2018-10-21T11:20:28.889Z,1029.50
2018-10-21T11:21:29.850Z,1029.45
2018-10-21T11:22:29.910Z,1029.44
2018-10-21T11:23:51.305Z,1029.42
2018-10-21T11:25:16.214Z,1029.40
2018-10-21T11:26:17.016Z,1029.39
2018-10-21T11:27:17.269Z,1029.36
2018-10-21T11:28:17.119Z,1029.40
2018-10-21T11:29:16.378Z,1029.40
2018-10-21T11:30:16.152Z,1029.39
2018-10-21T11:31:16.440Z,1029.39
2018-10-21T11:32:16.678Z,1029.37
2018-10-21T11:33:16.757Z,1029.36
2018-10-21T11:34:40.373Z,1029.36
2018-10-21T11:35:41.214Z,1029.36
2018-10-21T11:36:41.202Z,1029.31
2018-10-21T11:37:41.094Z,1029.34
2018-10-21T11:38:41.301Z,1029.34
2018-10-21T11:39:41.240Z,1029.33
2018-10-21T11:41:50.154Z,1029.31
2018-10-21T11:43:12.937Z,1029.31
2018-10-21T11:44:12.882Z,1029.34
2018-10-21T11:45:13.535Z,1029.33
2018-10-21T11:46:13.415Z,1029.32
2018-10-21T11:47:13.424Z,1029.33
2018-10-21T11:48:13.368Z,1029.31
2018-10-21T11:49:13.472Z,1029.30
2018-10-21T11:50:13.526Z,1029.26
2018-10-21T11:51:13.545Z,1029.24
2018-10-21T11:52:13.768Z,1029.22
2018-10-21T11:53:14.184Z,1029.20
2018-10-21T11:54:12.897Z,1029.19
2018-10-21T11:55:12.828Z,1029.17
2018-10-21T11:56:12.797Z,1029.13
2018-10-21T11:57:59.284Z,1029.12
2018-10-21T11:59:00.143Z,1029.03
2018-10-21T12:00:21.736Z,1029.04
2018-10-21T12:01:22.658Z,1029.03
2018-10-21T12:02:22.854Z,1029.05
2018-10-21T12:03:22.547Z,1028.99
2018-10-21T12:04:22.624Z,1028.95
2018-10-21T12:05:22.680Z,1028.93
2018-10-21T12:06:22.467Z,1028.94
2018-10-21T12:07:22.396Z,1028.93
2018-10-21T12:08:22.400Z,1028.93
2018-10-21T12:09:22.128Z,1028.88
2018-10-21T12:10:22.284Z,1028.88
2018-10-21T12:11:22.067Z,1028.81
2018-10-21T12:12:22.137Z,1028.84
2018-10-21T12:13:22.192Z,1028.77
2018-10-21T12:14:21.930Z,1028.75
2018-10-21T12:15:21.628Z,1028.74
2018-10-21T12:16:22.667Z,1028.74
2018-10-21T12:17:22.599Z,1028.75
2018-10-21T12:18:18.378Z,1028.76
2018-10-21T12:19:20.104Z,1028.75
2018-10-21T12:20:19.259Z,1028.75
2018-10-21T12:21:19.036Z,1028.73
2018-10-21T12:22:42.810Z,1028.72
2018-10-21T12:23:43.875Z,1028.72
2018-10-21T12:24:42.927Z,1028.67
2018-10-21T12:25:43.073Z,1028.67
2018-10-21T12:26:42.695Z,1028.69
2018-10-21T12:27:44.103Z,1028.72
2018-10-21T12:28:42.894Z,1028.71
2018-10-21T12:29:43.092Z,1028.67
2018-10-21T12:31:29.531Z,1028.63
2018-10-21T12:32:29.199Z,1028.63
2018-10-21T12:33:29.928Z,1028.64
2018-10-21T12:34:29.865Z,1028.61
2018-10-21T12:35:29.880Z,1028.61
2018-10-21T12:36:30.076Z,1028.54
2018-10-21T12:37:29.901Z,1028.57
2018-10-21T12:38:29.847Z,1028.52
2018-10-21T12:39:29.671Z,1028.53
2018-10-21T12:40:29.685Z,1028.54
2018-10-21T12:41:29.765Z,1028.51
2018-10-21T12:42:29.986Z,1028.52
2018-10-21T12:43:29.802Z,1028.49
2018-10-21T12:44:51.878Z,1028.47
2018-10-21T12:45:52.063Z,1028.46
2018-10-21T12:46:52.165Z,1028.44
2018-10-21T12:47:52.673Z,1028.44
2018-10-21T12:48:51.883Z,1028.42
2018-10-21T12:49:51.796Z,1028.40
2018-10-21T12:50:51.733Z,1028.41
2018-10-21T12:51:51.918Z,1028.43
2018-10-21T12:52:51.632Z,1028.43
2018-10-21T12:53:51.542Z,1028.43